Time;durP1;ratioP1;P1;durP2;ratioP2;P2;SDS_P1;SDS_P2;PMS_P1;PMS_P2;Temp;Humidity;BMP_temperature;BMP_pressure;BME280_temperature;BME280_humidity;BME280_pressure;Samples;Min_cycle;Max_cycle;Signal;HPM_P1;HPM_P2
2023/03/22 00:00:54;;;;;;;3.25;1.60;;;18.70;89.00;;;;;;5022849;28;20571;-68
2023/03/22 00:03:21;;;;;;;4.70;1.70;;;18.80;89.00;;;;;;5038020;28;20091;-68
2023/03/22 00:05:47;;;;;;;4.13;2.05;;;18.70;89.00;;;;;;5022695;28;20080;-68
2023/03/22 00:08:13;;;;;;;2.72;1.80;;;18.80;89.10;;;;;;5022529;28;20852;-68
2023/03/22 00:10:40;;;;;;;3.40;2.10;;;18.70;89.00;;;;;;5023171;28;20443;-68
2023/03/22 00:13:08;;;;;;;3.78;1.85;;;18.70;89.00;;;;;;5023918;28;20077;-68
2023/03/22 00:15:35;;;;;;;3.78;1.50;;;18.70;89.10;;;;;;5023194;28;20103;-68
2023/03/22 00:18:04;;;;;;;5.45;1.83;;;18.70;89.10;;;;;;5023477;28;20102;-68
2023/03/22 00:20:32;;;;;;;4.47;1.75;;;18.70;89.20;;;;;;5022681;28;20432;-68
2023/03/22 00:22:58;;;;;;;3.30;1.60;;;18.70;89.20;;;;;;5023477;28;20049;-68
2023/03/22 00:25:24;;;;;;;4.03;1.63;;;18.70;89.30;;;;;;5023545;28;20124;-68
2023/03/22 00:27:50;;;;;;;4.70;1.80;;;18.70;89.30;;;;;;5024083;28;20120;-68
2023/03/22 00:30:16;;;;;;;3.13;1.60;;;18.70;89.30;;;;;;5024231;28;20065;-68
2023/03/22 00:32:41;;;;;;;4.15;1.60;;;18.70;89.30;;;;;;5022940;28;20045;-68
2023/03/22 00:35:08;;;;;;;3.78;1.80;;;18.70;89.40;;;;;;5021579;28;20038;-68
2023/03/22 00:37:37;;;;;;;3.72;1.77;;;18.70;89.40;;;;;;5036059;28;20445;-68
2023/03/22 00:40:11;;;;;;;4.95;2.10;;;18.70;89.40;;;;;;5043213;28;20049;-68
2023/03/22 00:42:39;;;;;;;3.03;1.80;;;18.60;89.40;;;;;;5043599;28;20053;-67
2023/03/22 00:45:07;;;;;;;4.22;1.75;;;18.60;89.40;;;;;;5035993;28;20049;-68
2023/03/22 00:47:33;;;;;;;3.75;1.60;;;18.60;89.40;;;;;;5029413;28;20175;-68
2023/03/22 00:49:59;;;;;;;3.13;1.50;;;18.60;90.00;;;;;;5022899;28;20120;-68
2023/03/22 00:52:25;;;;;;;4.20;1.80;;;18.60;89.50;;;;;;5023800;28;20049;-67
2023/03/22 00:54:51;;;;;;;4.70;1.60;;;18.60;89.50;;;;;;5023699;28;20082;-68
2023/03/22 00:57:17;;;;;;;3.88;1.90;;;18.60;89.50;;;;;;5023336;28;20120;-68
2023/03/22 00:59:43;;;;;;;2.72;1.60;;;18.60;89.50;;;;;;5027374;28;20065;-68
2023/03/22 01:02:12;;;;;;;2.88;1.70;;;18.60;89.50;;;;;;5027228;28;20049;-68
2023/03/22 01:04:45;;;;;;;3.15;1.50;;;18.60;89.60;;;;;;5026295;28;20057;-68
2023/03/22 01:07:16;;;;;;;3.47;1.67;;;18.60;89.60;;;;;;5027313;28;20478;-68
2023/03/22 01:09:45;;;;;;;3.53;1.55;;;18.60;89.60;;;;;;5027240;28;20045;-68
2023/03/22 01:12:11;;;;;;;3.78;1.60;;;18.60;90.00;;;;;;5026996;28;20048;-68
2023/03/22 01:14:37;;;;;;;4.20;1.90;;;18.50;89.60;;;;;;5026463;28;20041;-68
2023/03/22 01:17:03;;;;;;;5.43;1.90;;;18.50;89.60;;;;;;5027263;28;20119;-68
2023/03/22 01:19:28;;;;;;;3.75;1.83;;;18.50;89.60;;;;;;5025998;28;20061;-68
2023/03/22 01:21:54;;;;;;;5.07;1.52;;;18.50;89.60;;;;;;5026405;28;20495;-68
2023/03/22 01:24:20;;;;;;;4.40;1.65;;;18.50;89.60;;;;;;5027084;28;20041;-68
2023/03/22 01:26:46;;;;;;;3.38;1.67;;;18.50;89.60;;;;;;5026772;28;20630;-68
2023/03/22 01:29:12;;;;;;;3.38;1.55;;;18.50;89.60;;;;;;5026257;28;20051;-68
2023/03/22 01:31:37;;;;;;;3.50;1.58;;;18.50;89.60;;;;;;5026947;28;20060;-68
2023/03/22 01:34:03;;;;;;;2.92;1.38;;;18.50;89.60;;;;;;5027149;28;20136;-68
2023/03/22 01:36:29;;;;;;;2.85;1.63;;;18.50;89.70;;;;;;5025092;28;20485;-68
2023/03/22 01:38:55;;;;;;;3.00;1.60;;;18.50;89.60;;;;;;5027001;28;20042;-68
2023/03/22 01:41:21;;;;;;;3.72;1.52;;;18.50;89.60;;;;;;5026690;28;20196;-68
2023/03/22 01:44:17;;;;;;;4.40;1.50;;;18.50;89.60;;;;;;5026558;28;20125;-68
2023/03/22 01:46:45;;;;;;;3.35;1.77;;;18.50;89.60;;;;;;5035431;28;20492;-68
2023/03/22 01:49:15;;;;;;;2.83;1.58;;;18.50;89.60;;;;;;5046594;28;20053;-68
2023/03/22 01:51:43;;;;;;;3.42;1.50;;;18.50;89.60;;;;;;5045327;28;20399;-68
2023/03/22 01:54:13;;;;;;;3.22;1.60;;;18.50;89.60;;;;;;5046558;28;20492;-68
2023/03/22 01:56:40;;;;;;;3.92;1.58;;;18.40;89.50;;;;;;5045806;28;20064;-68
2023/03/22 01:59:10;;;;;;;4.00;1.60;;;18.40;89.50;;;;;;5046438;28;20044;-68
2023/03/22 02:01:36;;;;;;;2.97;1.65;;;18.40;89.50;;;;;;5046082;28;20063;-68
2023/03/22 02:04:15;;;;;;;3.65;1.58;;;18.40;89.50;;;;;;5046043;28;20041;-68
2023/03/22 02:06:41;;;;;;;4.40;1.50;;;18.40;89.50;;;;;;5044740;28;20411;-68
2023/03/22 02:09:09;;;;;;;3.53;1.70;;;18.40;89.50;;;;;;5045373;28;20041;-68
2023/03/22 02:11:42;;;;;;;3.47;1.60;;;18.40;89.50;;;;;;5044268;28;20473;-68
2023/03/22 02:14:24;;;;;;;3.58;1.30;;;18.40;89.50;;;;;;5045986;28;20175;-68
2023/03/22 02:17:14;;;;;;;3.00;1.20;;;18.40;89.50;;;;;;5045763;28;20636;-68
2023/03/22 02:20:15;;;;;;;3.35;1.40;;;18.40;89.40;;;;;;5044956;28;20057;-68
2023/03/22 02:22:52;;;;;;;3.45;1.60;;;18.40;89.40;;;;;;5036455;28;20048;-68
2023/03/22 02:25:49;;;;;;;2.97;1.20;;;18.40;89.40;;;;;;5045653;28;20044;-68
2023/03/22 02:28:27;;;;;;;3.75;1.75;;;18.40;89.50;;;;;;5045576;28;20087;-68
2023/03/22 02:31:15;;;;;;;3.78;1.70;;;18.40;89.40;;;;;;5045524;28;20423;-68
2023/03/22 02:34:02;;;;;;;2.85;1.48;;;18.40;89.40;;;;;;5045886;28;20120;-68
2023/03/22 02:36:48;;;;;;;3.63;1.52;;;18.40;89.40;;;;;;5044648;28;20141;-69
2023/03/22 02:39:51;;;;;;;3.83;1.70;;;18.30;89.30;;;;;;5045387;28;20073;-68
2023/03/22 02:42:36;;;;;;;3.35;1.33;;;18.30;89.30;;;;;;5044926;28;20049;-68
2023/03/22 02:45:13;;;;;;;3.13;1.20;;;18.30;89.30;;;;;;5039348;28;20099;-68
2023/03/22 02:48:01;;;;;;;2.92;1.40;;;18.30;89.20;;;;;;5031630;28;20053;-68
2023/03/22 02:50:36;;;;;;;2.25;1.23;;;18.30;89.20;;;;;;5024879;28;20423;-68
2023/03/22 02:53:15;;;;;;;2.97;1.30;;;18.30;89.80;;;;;;5026099;28;20090;-68
2023/03/22 02:55:45;;;;;;;2.97;1.50;;;18.30;89.20;;;;;;5026025;28;20085;-68
2023/03/22 02:58:17;;;;;;;4.47;1.30;;;18.30;89.20;;;;;;5026163;28;20412;-68
2023/03/22 03:00:46;;;;;;;3.10;1.30;;;18.30;89.20;;;;;;5024879;28;20072;-68
2023/03/22 03:03:17;;;;;;;2.40;1.30;;;18.30;89.20;;;;;;5025445;28;20053;-68
2023/03/22 03:05:47;;;;;;;3.50;1.50;;;18.30;89.20;;;;;;5024751;28;20103;-68
2023/03/22 03:08:15;;;;;;;2.80;1.20;;;18.30;89.20;;;;;;5024331;28;20045;-68
2023/03/22 03:10:42;;;;;;;3.55;1.50;;;18.30;89.30;;;;;;5025314;28;20041;-68
2023/03/22 03:13:13;;;;;;;4.03;1.30;;;18.30;89.20;;;;;;5025091;28;20444;-68
2023/03/22 03:15:42;;;;;;;2.97;1.30;;;18.30;89.20;;;;;;5024184;28;20406;-68
2023/03/22 03:18:23;;;;;;;2.33;1.13;;;18.20;89.10;;;;;;5023350;28;20049;-68
2023/03/22 03:21:23;;;;;;;4.15;1.20;;;18.20;89.10;;;;;;5023274;28;20490;-68
2023/03/22 03:24:10;;;;;;;2.92;1.30;;;18.20;89.10;;;;;;5020474;28;20882;-68
2023/03/22 03:26:51;;;;;;;3.97;1.38;;;18.20;89.10;;;;;;5024450;28;20132;-68
2023/03/22 03:29:21;;;;;;;3.88;1.42;;;18.20;89.20;;;;;;5022306;28;20053;-68
2023/03/22 03:32:06;;;;;;;3.47;1.40;;;18.20;89.20;;;;;;5024389;28;20052;-68
2023/03/22 03:34:51;;;;;;;3.60;1.20;;;18.20;89.20;;;;;;5023818;28;20053;-69
2023/03/22 03:37:38;;;;;;;4.07;1.40;;;18.20;89.20;;;;;;5023905;28;20524;-67
2023/03/22 03:40:19;;;;;;;3.22;1.23;;;18.20;89.20;;;;;;5023996;28;20487;-67
2023/03/22 03:42:51;;;;;;;1.95;1.05;;;18.20;89.10;;;;;;5024126;28;20040;-67
2023/03/22 03:45:18;;;;;;;3.05;1.40;;;18.20;89.10;;;;;;5029150;28;20454;-67
2023/03/22 03:47:45;;;;;;;2.67;1.10;;;18.20;89.10;;;;;;5029438;28;20155;-67
2023/03/22 03:50:14;;;;;;;2.72;1.30;;;18.20;89.10;;;;;;5023611;28;20041;-67
2023/03/22 03:52:40;;;;;;;3.15;1.30;;;18.20;89.10;;;;;;5024187;28;20049;-67
2023/03/22 03:55:06;;;;;;;2.65;1.20;;;18.20;89.10;;;;;;5023803;28;20033;-67
2023/03/22 03:57:32;;;;;;;1.75;1.20;;;18.20;89.10;;;;;;5024498;28;20440;-67
2023/03/22 03:59:58;;;;;;;2.92;1.10;;;18.20;89.10;;;;;;5024882;28;20045;-67
2023/03/22 04:02:23;;;;;;;2.33;1.15;;;18.20;89.10;;;;;;5023586;28;20403;-67
2023/03/22 04:04:49;;;;;;;2.63;1.08;;;18.20;89.10;;;;;;5023526;28;20037;-67
2023/03/22 04:07:15;;;;;;;4.15;1.27;;;18.20;89.10;;;;;;5023648;28;20072;-67
2023/03/22 04:09:41;;;;;;;2.90;1.05;;;18.10;89.00;;;;;;5024213;28;20642;-67
2023/03/22 04:12:08;;;;;;;3.38;1.20;;;18.10;89.00;;;;;;5023211;28;20129;-67
2023/03/22 04:14:35;;;;;;;2.67;1.20;;;18.10;89.00;;;;;;5023878;28;20041;-67
2023/03/22 04:17:00;;;;;;;2.63;1.30;;;18.10;89.00;;;;;;5024221;28;20064;-67
2023/03/22 04:19:26;;;;;;;3.08;1.10;;;18.10;89.00;;;;;;5022304;28;20050;-67
2023/03/22 04:21:52;;;;;;;3.35;1.42;;;18.10;88.90;;;;;;5023753;28;20053;-67
2023/03/22 04:24:20;;;;;;;4.03;1.25;;;18.10;88.90;;;;;;5023821;28;20126;-66
2023/03/22 04:26:45;;;;;;;2.50;1.00;;;18.10;89.00;;;;;;5023512;28;20179;-66
2023/03/22 04:29:11;;;;;;;3.55;1.35;;;18.10;88.90;;;;;;5022511;28;20045;-66
2023/03/22 04:31:38;;;;;;;5.32;1.23;;;18.10;88.90;;;;;;5023108;28;20049;-66
2023/03/22 04:34:04;;;;;;;2.50;1.13;;;18.10;89.00;;;;;;5020905;28;20041;-67
2023/03/22 04:36:38;;;;;;;3.25;1.10;;;18.10;89.00;;;;;;5023030;28;20116;-66
2023/03/22 04:39:06;;;;;;;4.70;1.17;;;18.10;89.10;;;;;;5023815;28;20053;-67
2023/03/22 04:41:32;;;;;;;2.58;1.30;;;18.10;89.00;;;;;;5023170;28;20424;-66
2023/03/22 04:44:02;;;;;;;2.55;1.17;;;18.00;89.00;;;;;;5023002;28;20048;-66
2023/03/22 04:46:33;;;;;;;3.22;1.30;;;18.00;89.00;;;;;;5033385;28;20382;-66
2023/03/22 04:48:58;;;;;;;2.38;1.15;;;18.10;89.00;;;;;;5022161;28;20037;-67
2023/03/22 04:51:25;;;;;;;2.33;1.02;;;18.10;89.00;;;;;;5022129;28;20060;-66
2023/03/22 04:53:51;;;;;;;2.67;1.20;;;18.00;88.90;;;;;;5021180;28;20054;-66
2023/03/22 04:56:17;;;;;;;3.40;1.50;;;18.00;88.90;;;;;;5022601;28;20069;-66
2023/03/22 04:58:44;;;;;;;3.85;1.38;;;18.00;88.90;;;;;;5022236;28;20707;-66
2023/03/22 05:01:11;;;;;;;3.08;1.02;;;18.00;88.90;;;;;;5038273;28;20128;-66
2023/03/22 05:03:37;;;;;;;3.00;1.20;;;18.00;88.90;;;;;;5022874;28;20091;-66
2023/03/22 05:06:05;;;;;;;3.55;1.30;;;18.00;88.90;;;;;;5021774;28;20077;-66
2023/03/22 05:08:31;;;;;;;3.53;1.30;;;18.00;88.80;;;;;;5021041;28;20045;-66
2023/03/22 05:11:02;;;;;;;3.83;1.50;;;18.00;88.90;;;;;;5022850;28;20432;-66
2023/03/22 05:13:28;;;;;;;2.60;1.20;;;18.00;88.90;;;;;;5023224;28;20069;-66
2023/03/22 05:15:54;;;;;;;2.08;1.20;;;18.00;88.90;;;;;;5022568;28;20454;-66
2023/03/22 05:18:25;;;;;;;2.53;1.30;;;18.00;88.90;;;;;;5022057;28;20068;-66
2023/03/22 05:20:53;;;;;;;2.17;0.95;;;18.00;88.90;;;;;;5022342;28;20045;-66
2023/03/22 05:23:19;;;;;;;2.55;1.30;;;18.00;88.80;;;;;;5022580;28;20099;-66
2023/03/22 05:25:50;;;;;;;2.88;1.20;;;18.00;88.80;;;;;;5022832;28;20038;-66
2023/03/22 05:28:18;;;;;;;2.80;1.20;;;18.00;88.80;;;;;;5022630;28;20047;-66
2023/03/22 05:30:44;;;;;;;2.58;1.02;;;18.00;88.80;;;;;;5021610;28;20396;-66
2023/03/22 05:33:11;;;;;;;3.28;1.60;;;17.90;88.70;;;;;;5022559;28;20049;-66
2023/03/22 05:35:38;;;;;;;3.13;1.40;;;18.00;88.80;;;;;;5022065;28;20048;-66
2023/03/22 05:38:05;;;;;;;2.80;1.50;;;18.00;88.80;;;;;;5023114;28;20049;-66
2023/03/22 05:40:31;;;;;;;3.05;1.77;;;17.90;88.70;;;;;;5020733;28;20522;-66
2023/03/22 05:42:57;;;;;;;3.22;1.80;;;17.90;88.70;;;;;;5021322;28;20053;-66
2023/03/22 05:45:23;;;;;;;2.83;1.60;;;17.90;88.70;;;;;;5030158;28;20128;-66
2023/03/22 05:47:49;;;;;;;3.22;1.60;;;17.90;88.70;;;;;;5030369;28;20041;-66
2023/03/22 05:50:20;;;;;;;4.53;1.95;;;17.90;88.80;;;;;;5026006;28;20041;-66
2023/03/22 05:52:46;;;;;;;4.03;1.80;;;17.90;88.80;;;;;;5026210;28;20041;-66
2023/03/22 05:55:16;;;;;;;4.28;2.13;;;17.90;88.80;;;;;;5026096;28;20060;-66
2023/03/22 05:57:43;;;;;;;2.63;1.70;;;17.90;88.80;;;;;;5026341;28;20507;-66
2023/03/22 06:00:15;;;;;;;4.03;1.88;;;17.90;88.90;;;;;;5026219;28;20161;-67
2023/03/22 06:02:45;;;;;;;4.20;1.98;;;17.90;88.80;;;;;;5024560;28;20049;-66
2023/03/22 06:05:13;;;;;;;3.13;1.80;;;17.90;88.80;;;;;;5025692;28;20135;-66
2023/03/22 06:07:39;;;;;;;3.35;1.92;;;17.90;88.90;;;;;;5026396;28;20045;-67
2023/03/22 06:10:07;;;;;;;3.10;1.70;;;17.90;88.90;;;;;;5025757;28;20073;-66
2023/03/22 06:12:34;;;;;;;3.08;1.80;;;17.90;88.90;;;;;;5026260;28;20128;-66
2023/03/22 06:15:00;;;;;;;3.60;1.95;;;17.90;89.00;;;;;;5025982;28;20116;-66
2023/03/22 06:17:26;;;;;;;4.00;1.85;;;17.90;88.90;;;;;;5026126;28;20634;-66
2023/03/22 06:19:53;;;;;;;3.45;2.08;;;17.90;88.90;;;;;;5023884;28;20111;-66
2023/03/22 06:22:19;;;;;;;3.63;2.10;;;17.80;88.90;;;;;;5026008;28;20053;-66
2023/03/22 06:24:45;;;;;;;3.50;2.00;;;17.80;88.90;;;;;;5025847;28;20037;-66
2023/03/22 06:27:11;;;;;;;3.80;2.28;;;17.80;88.90;;;;;;5024938;28;20051;-67
2023/03/22 06:29:36;;;;;;;2.60;1.73;;;17.80;89.00;;;;;;5025951;28;20419;-66
2023/03/22 06:32:03;;;;;;;3.75;1.90;;;17.80;89.00;;;;;;5025815;28;20045;-66
2023/03/22 06:34:28;;;;;;;3.10;1.55;;;17.80;89.00;;;;;;5024978;28;20317;-66
2023/03/22 06:36:54;;;;;;;3.05;1.70;;;17.90;89.00;;;;;;5024772;28;20053;-66
2023/03/22 06:39:20;;;;;;;2.95;1.27;;;17.90;88.90;;;;;;5025706;28;20046;-66
2023/03/22 06:41:46;;;;;;;3.90;1.50;;;18.00;89.50;;;;;;5023933;28;20080;-66
2023/03/22 06:44:12;;;;;;;3.67;1.42;;;18.10;88.80;;;;;;5024922;28;20535;-66
2023/03/22 06:46:38;;;;;;;3.00;1.50;;;18.20;88.70;;;;;;5035920;28;20049;-66
2023/03/22 06:49:04;;;;;;;2.33;1.40;;;18.30;88.40;;;;;;5024827;28;20041;-66
2023/03/22 06:51:30;;;;;;;2.63;1.48;;;18.40;88.70;;;;;;5025486;28;20152;-66
2023/03/22 06:53:56;;;;;;;2.97;1.40;;;18.50;87.80;;;;;;5025229;28;20095;-66
2023/03/22 06:56:22;;;;;;;2.95;1.48;;;18.50;87.70;;;;;;5024914;28;20045;-66
2023/03/22 06:58:50;;;;;;;2.85;1.50;;;18.60;87.60;;;;;;5025024;28;20088;-67
2023/03/22 07:01:16;;;;;;;3.55;1.70;;;18.70;87.40;;;;;;5024361;28;20050;-66
2023/03/22 07:03:42;;;;;;;3.83;1.48;;;18.70;87.70;;;;;;5024472;28;20132;-67
2023/03/22 07:06:08;;;;;;;2.33;1.45;;;18.60;87.40;;;;;;5026738;28;20139;-66
2023/03/22 07:08:36;;;;;;;2.40;1.50;;;18.60;87.40;;;;;;5043662;28;20045;-66
2023/03/22 07:11:02;;;;;;;2.88;1.35;;;18.70;87.50;;;;;;5044931;28;20542;-66
2023/03/22 07:13:28;;;;;;;2.83;1.60;;;18.70;87.40;;;;;;5044597;28;20665;-66
2023/03/22 07:15:58;;;;;;;2.80;1.50;;;18.70;87.50;;;;;;5044513;28;20072;-66
2023/03/22 07:18:24;;;;;;;3.45;1.40;;;18.70;87.40;;;;;;5044042;28;20473;-66
2023/03/22 07:20:50;;;;;;;3.33;1.70;;;18.70;87.30;;;;;;5043781;28;20051;-66
2023/03/22 07:23:16;;;;;;;3.05;1.42;;;18.80;87.20;;;;;;5044571;28;20045;-66
2023/03/22 07:25:46;;;;;;;2.97;1.60;;;18.80;87.10;;;;;;5044388;28;20052;-67
2023/03/22 07:28:14;;;;;;;2.28;1.40;;;18.80;87.10;;;;;;5044269;28;20080;-66
2023/03/22 07:30:40;;;;;;;3.92;1.50;;;18.80;87.10;;;;;;5044955;28;20037;-66
2023/03/22 07:33:07;;;;;;;2.35;1.40;;;18.80;87.30;;;;;;5043971;28;20186;-66
2023/03/22 07:35:34;;;;;;;3.42;1.48;;;18.70;87.30;;;;;;5043165;28;20103;-66
2023/03/22 07:38:00;;;;;;;3.00;1.08;;;18.70;87.30;;;;;;5043490;28;20081;-66
2023/03/22 07:40:26;;;;;;;2.50;1.25;;;18.70;87.40;;;;;;5044275;28;20518;-66
2023/03/22 07:42:52;;;;;;;3.00;1.50;;;18.70;87.40;;;;;;5043532;28;20459;-66
2023/03/22 07:45:19;;;;;;;3.22;1.45;;;18.80;87.40;;;;;;5037400;28;20053;-66
2023/03/22 07:47:46;;;;;;;3.13;1.52;;;18.80;87.40;;;;;;5029096;28;20365;-67
2023/03/22 07:50:12;;;;;;;2.10;1.27;;;18.80;87.40;;;;;;5021606;28;20048;-67
2023/03/22 07:52:39;;;;;;;2.95;1.40;;;18.70;87.40;;;;;;5024203;28;20061;-67
2023/03/22 07:55:06;;;;;;;3.22;1.42;;;18.80;87.40;;;;;;5023928;28;20045;-67
2023/03/22 07:57:32;;;;;;;5.15;1.70;;;18.80;87.50;;;;;;5024105;28;20140;-67
2023/03/22 07:59:58;;;;;;;3.38;1.20;;;18.80;87.50;;;;;;5023648;28;20121;-67
2023/03/22 08:02:24;;;;;;;4.30;1.50;;;18.80;87.60;;;;;;5029899;28;20071;-66
2023/03/22 08:04:51;;;;;;;3.10;1.30;;;18.80;87.60;;;;;;5042887;28;20037;-67
2023/03/22 08:07:20;;;;;;;3.30;1.40;;;18.80;87.60;;;;;;5042414;28;20053;-67
2023/03/22 08:09:46;;;;;;;3.35;1.50;;;18.80;87.70;;;;;;5043921;28;20032;-67
2023/03/22 08:12:11;;;;;;;4.32;1.40;;;18.80;87.80;;;;;;5044593;28;20545;-67
2023/03/22 08:14:37;;;;;;;2.17;1.20;;;18.80;87.80;;;;;;5043079;28;20041;-67
2023/03/22 08:17:04;;;;;;;3.13;1.40;;;18.80;87.70;;;;;;5043214;28;20040;-67
2023/03/22 08:19:31;;;;;;;2.72;1.35;;;18.80;87.70;;;;;;5042583;28;20540;-67
2023/03/22 08:21:58;;;;;;;3.33;1.38;;;18.90;87.70;;;;;;5043702;28;20108;-67
2023/03/22 08:24:24;;;;;;;4.22;1.48;;;18.80;87.70;;;;;;5042815;28;20072;-66
2023/03/22 08:26:52;;;;;;;2.55;1.20;;;18.80;87.70;;;;;;5042164;28;20053;-67
2023/03/22 08:29:22;;;;;;;2.15;1.10;;;18.80;87.70;;;;;;5043457;28;20425;-67
2023/03/22 08:31:48;;;;;;;3.15;1.30;;;18.80;87.80;;;;;;5042236;28;20055;-67
2023/03/22 08:34:14;;;;;;;3.35;1.30;;;18.80;87.80;;;;;;5042854;28;20707;-66
2023/03/22 08:36:39;;;;;;;3.70;1.15;;;18.90;87.70;;;;;;5041588;28;20052;-67
2023/03/22 08:39:05;;;;;;;2.42;1.02;;;18.90;87.60;;;;;;5033220;28;20053;-67
2023/03/22 08:41:31;;;;;;;2.58;1.30;;;18.90;87.60;;;;;;5022814;28;20136;-67
2023/03/22 08:43:56;;;;;;;3.00;1.00;;;19.00;87.70;;;;;;5023724;28;20041;-66
2023/03/22 08:46:22;;;;;;;2.85;1.35;;;18.90;87.70;;;;;;5031993;28;20580;-66
2023/03/22 08:48:51;;;;;;;2.38;1.20;;;18.90;87.60;;;;;;5042049;28;20044;-66
2023/03/22 08:51:18;;;;;;;3.75;1.10;;;18.90;87.60;;;;;;5043929;28;20037;-66
2023/03/22 08:53:45;;;;;;;4.45;1.38;;;18.90;87.50;;;;;;5043612;28;20594;-66
2023/03/22 08:56:13;;;;;;;2.50;1.17;;;18.90;87.60;;;;;;5042582;28;20503;-66
2023/03/22 08:58:41;;;;;;;5.10;1.35;;;18.90;87.70;;;;;;5043500;28;20039;-66
2023/03/22 09:01:10;;;;;;;3.72;1.23;;;18.90;87.70;;;;;;5042709;28;20045;-66
2023/03/22 09:03:36;;;;;;;3.33;1.02;;;19.00;87.80;;;;;;5041729;28;20037;-66
2023/03/22 09:06:01;;;;;;;3.33;1.20;;;19.00;87.90;;;;;;5020985;28;20435;-66
2023/03/22 09:08:28;;;;;;;3.33;1.30;;;19.00;87.90;;;;;;5023020;28;20116;-66
2023/03/22 09:10:54;;;;;;;6.70;1.50;;;19.00;88.10;;;;;;5023002;28;20108;-65
2023/03/22 09:13:19;;;;;;;4.38;1.38;;;19.00;88.20;;;;;;5035479;28;20069;-66
2023/03/22 09:15:46;;;;;;;5.22;1.20;;;18.90;88.20;;;;;;5043439;28;20722;-66
2023/03/22 09:18:12;;;;;;;4.15;1.20;;;19.00;88.30;;;;;;5042619;28;20091;-67
2023/03/22 09:20:38;;;;;;;3.38;1.30;;;19.00;88.30;;;;;;5046214;28;20052;-66
2023/03/22 09:23:04;;;;;;;4.18;1.42;;;19.00;88.30;;;;;;5046149;28;20056;-68
2023/03/22 09:25:30;;;;;;;3.42;1.33;;;19.00;88.50;;;;;;5046985;28;20045;-67
2023/03/22 09:27:56;;;;;;;7.60;1.40;;;19.00;88.80;;;;;;5046392;28;20051;-68
2023/03/22 09:30:21;;;;;;;9.80;1.40;;;19.00;89.00;;;;;;5046086;28;20597;-68
2023/03/22 09:32:47;;;;;;;4.28;1.20;;;19.00;88.90;;;;;;5047224;28;20484;-68
2023/03/22 09:35:13;;;;;;;5.97;1.48;;;19.00;88.90;;;;;;5045465;28;20033;-68
2023/03/22 09:37:38;;;;;;;4.72;1.35;;;19.00;88.90;;;;;;5046198;28;20060;-68
2023/03/22 09:40:05;;;;;;;5.45;1.00;;;19.00;88.80;;;;;;5045512;28;20041;-67
2023/03/22 09:42:41;;;;;;;5.25;1.40;;;19.00;88.80;;;;;;5046553;28;20120;-67
2023/03/22 09:45:13;;;;;;;5.80;1.23;;;19.00;88.80;;;;;;5039713;28;20148;-68
2023/03/22 09:47:43;;;;;;;3.88;1.25;;;19.00;88.80;;;;;;5031012;28;20053;-66
2023/03/22 09:50:20;;;;;;;3.72;1.35;;;19.00;89.10;;;;;;5025910;28;20053;-68
2023/03/22 09:52:46;;;;;;;4.22;1.58;;;19.00;89.20;;;;;;5026176;28;20057;-66
2023/03/22 09:55:24;;;;;;;4.57;1.48;;;19.00;89.10;;;;;;5026008;28;20045;-68
2023/03/22 09:58:05;;;;;;;5.63;1.13;;;19.00;89.00;;;;;;5025683;28;20049;-66
2023/03/22 10:00:42;;;;;;;3.38;1.20;;;19.00;88.90;;;;;;5026617;28;20083;-67
2023/03/22 10:03:17;;;;;;;3.00;1.00;;;18.90;88.80;;;;;;5025221;28;20132;-66
2023/03/22 10:05:52;;;;;;;5.20;1.20;;;18.90;88.80;;;;;;5024410;28;20420;-67
2023/03/22 10:08:20;;;;;;;;;;;18.90;88.70;;;;;;5026871;28;20056;-67
2023/03/22 10:10:46;;;;;;;3.83;1.00;;;18.90;89.30;;;;;;5025513;28;20548;-66
2023/03/22 10:13:26;;;;;;;4.63;1.45;;;18.90;88.70;;;;;;5026014;28;20499;-66
2023/03/22 10:16:12;;;;;;;3.30;1.10;;;18.90;88.70;;;;;;5026307;28;20076;-66
2023/03/22 10:18:44;;;;;;;3.42;1.08;;;18.90;88.70;;;;;;5023739;28;20447;-67
2023/03/22 10:21:16;;;;;;;2.75;1.05;;;18.90;88.60;;;;;;5025943;28;20061;-66
2023/03/22 10:24:01;;;;;;;3.50;1.20;;;18.90;89.20;;;;;;5025036;28;20045;-66
2023/03/22 10:26:33;;;;;;;4.45;1.27;;;18.90;88.60;;;;;;5025599;28;20077;-67
2023/03/22 10:29:03;;;;;;;3.42;1.23;;;18.90;88.60;;;;;;5025160;28;20048;-67
2023/03/22 10:31:30;;;;;;;4.10;1.15;;;18.90;88.50;;;;;;5025182;28;20055;-67
2023/03/22 10:34:21;;;;;;;4.65;1.40;;;18.90;88.50;;;;;;5024604;28;20048;-66
2023/03/22 10:36:51;;;;;;;3.40;1.13;;;18.90;88.50;;;;;;5024906;28;20053;-67
2023/03/22 10:39:23;;;;;;;3.28;1.40;;;18.90;88.60;;;;;;5025686;28;20500;-66
2023/03/22 10:41:51;;;;;;;3.42;1.10;;;18.90;88.50;;;;;;5023727;28;20045;-67
2023/03/22 10:44:20;;;;;;;5.00;1.20;;;18.90;88.50;;;;;;5027146;28;20083;-66
2023/03/22 10:46:49;;;;;;;2.97;1.23;;;18.90;88.40;;;;;;5034094;28;20408;-67
2023/03/22 10:49:24;;;;;;;5.05;1.23;;;18.90;88.40;;;;;;5023633;28;20742;-66
2023/03/22 10:52:01;;;;;;;4.78;1.40;;;18.90;88.40;;;;;;5025536;28;20345;-67
2023/03/22 10:54:27;;;;;;;3.35;1.10;;;18.90;88.40;;;;;;5023191;28;20066;-66
2023/03/22 10:56:52;;;;;;;3.67;1.20;;;18.90;88.40;;;;;;5024116;28;20049;-67
2023/03/22 10:59:40;;;;;;;4.18;1.15;;;18.90;88.40;;;;;;5025459;28;20042;-67
2023/03/22 11:02:25;;;;;;;4.03;1.10;;;18.90;88.40;;;;;;5024468;28;20056;-67
2023/03/22 11:04:54;;;;;;;5.75;1.30;;;18.90;88.40;;;;;;5024663;28;20064;-66
2023/03/22 11:07:36;;;;;;;3.28;1.10;;;18.90;88.50;;;;;;5023978;28;20107;-66
2023/03/22 11:10:08;;;;;;;3.67;1.13;;;19.00;88.50;;;;;;5024157;28;20048;-67
2023/03/22 11:13:06;;;;;;;2.63;0.90;;;18.90;88.50;;;;;;5023224;28;20045;-66
2023/03/22 11:15:38;;;;;;;2.60;1.10;;;19.00;88.50;;;;;;5023877;28;20042;-67
2023/03/22 11:18:13;;;;;;;3.42;1.10;;;19.00;88.50;;;;;;5038331;28;20128;-66
2023/03/22 11:20:51;;;;;;;2.00;0.98;;;19.00;88.60;;;;;;5023752;28;20045;-67
2023/03/22 11:23:19;;;;;;;2.33;1.10;;;19.00;88.60;;;;;;5023190;28;20215;-67
2023/03/22 11:25:47;;;;;;;5.85;1.10;;;19.00;88.60;;;;;;5023690;28;20050;-67
2023/03/22 11:28:21;;;;;;;3.60;1.20;;;18.90;88.50;;;;;;5024072;28;20088;-67
2023/03/22 11:31:15;;;;;;;4.45;1.00;;;19.00;88.60;;;;;;5022862;28;20059;-67
2023/03/22 11:33:53;;;;;;;3.05;0.90;;;19.00;88.70;;;;;;5023880;28;20049;-66
2023/03/22 11:36:19;;;;;;;2.65;1.05;;;19.00;88.80;;;;;;5024229;28;20045;-67
2023/03/22 11:38:45;;;;;;;2.95;1.17;;;18.90;88.70;;;;;;5024285;28;20478;-66
2023/03/22 11:41:34;;;;;;;2.05;0.90;;;19.00;88.70;;;;;;5024228;28;20091;-67
2023/03/22 11:44:06;;;;;;;3.45;1.00;;;19.00;88.70;;;;;;5023502;28;20041;-67
2023/03/22 11:46:35;;;;;;;3.10;1.10;;;19.00;88.70;;;;;;5032788;28;20063;-67
2023/03/22 11:49:07;;;;;;;2.35;1.00;;;19.00;88.80;;;;;;5042929;28;20492;-67
2023/03/22 11:51:36;;;;;;;2.58;1.10;;;19.00;88.80;;;;;;5044034;28;20036;-66
2023/03/22 11:54:19;;;;;;;2.90;0.90;;;19.00;88.70;;;;;;5043586;28;20051;-68
2023/03/22 11:56:47;;;;;;;3.78;1.20;;;19.00;88.80;;;;;;5043603;28;20045;-67
2023/03/22 11:59:44;;;;;;;3.33;1.13;;;18.90;88.80;;;;;;5044495;28;20053;-66
2023/03/22 12:02:24;;;;;;;2.92;1.10;;;19.00;88.90;;;;;;5034421;28;20384;-68
2023/03/22 12:04:56;;;;;;;3.13;1.10;;;18.90;88.90;;;;;;5041339;28;20068;-67
2023/03/22 12:07:23;;;;;;;3.28;1.00;;;18.90;89.00;;;;;;5043902;28;20071;-67
2023/03/22 12:10:13;;;;;;;4.63;1.10;;;19.00;89.00;;;;;;5044146;28;20051;-66
2023/03/22 12:12:50;;;;;;;2.53;1.20;;;18.90;88.90;;;;;;5042878;28;20052;-66
2023/03/22 12:15:26;;;;;;;3.00;1.00;;;19.00;89.00;;;;;;5043342;28;20478;-66
2023/03/22 12:17:59;;;;;;;3.00;1.10;;;19.00;89.00;;;;;;5037777;28;20049;-67
2023/03/22 12:20:49;;;;;;;3.58;1.00;;;18.90;89.00;;;;;;5033616;28;20053;-67
2023/03/22 12:23:23;;;;;;;3.53;1.05;;;18.90;89.00;;;;;;5026590;28;20061;-67
2023/03/22 12:26:15;;;;;;;2.95;1.17;;;18.90;89.10;;;;;;5023094;28;20088;-67
2023/03/22 12:28:42;;;;;;;3.17;0.90;;;18.90;89.20;;;;;;5014118;28;20467;-67
2023/03/22 12:31:18;;;;;;;2.40;0.90;;;18.90;89.20;;;;;;5023284;28;20052;-67
2023/03/22 12:33:50;;;;;;;2.95;0.80;;;18.90;89.10;;;;;;5022543;28;20049;-67
2023/03/22 12:36:47;;;;;;;1.80;0.80;;;18.90;89.10;;;;;;5023809;28;20041;-67
2023/03/22 12:39:47;;;;;;;2.47;0.82;;;18.90;89.20;;;;;;5022306;28;20464;-67
2023/03/22 12:42:21;;;;;;;3.92;1.00;;;18.80;89.00;;;;;;5018929;28;20061;-67
2023/03/22 12:44:49;;;;;;;2.65;1.10;;;18.80;89.00;;;;;;5027386;28;20076;-67
2023/03/22 12:47:41;;;;;;;3.97;1.05;;;18.80;89.10;;;;;;5034337;28;20084;-67
2023/03/22 12:50:22;;;;;;;8.52;1.55;;;18.80;89.10;;;;;;5043537;28;20450;-67
2023/03/22 12:52:50;;;;;;;14.77;1.40;;;18.80;89.20;;;;;;5042810;28;20418;-66
2023/03/22 12:55:31;;;;;;;18.38;1.40;;;18.80;89.40;;;;;;5046639;28;20403;-66
2023/03/22 12:57:58;;;;;;;5.28;1.05;;;18.80;89.30;;;;;;5045786;28;20080;-66
2023/03/22 13:00:51;;;;;;;6.95;1.17;;;18.80;89.40;;;;;;5045231;28;20037;-66
2023/03/22 13:03:35;;;;;;;4.82;1.10;;;18.80;89.40;;;;;;5040528;28;20132;-66
2023/03/22 13:06:26;;;;;;;5.35;1.05;;;18.80;89.50;;;;;;5047369;28;20056;-66